sensor_id;sensor_type;location;lat;lon;timestamp;P1;durP1;ratioP1;P2;durP2;ratioP2
15526;SDS011;7865;50.918;4.510;2022-12-24T00:03:22;22.10;;;4.77;;
15526;SDS011;7865;50.918;4.510;2022-12-24T00:08:24;28.37;;;4.57;;
15526;SDS011;7865;50.918;4.510;2022-12-24T00:13:26;24.53;;;3.83;;
15526;SDS011;7865;50.918;4.510;2022-12-24T00:18:28;22.13;;;4.80;;
15526;SDS011;7865;50.918;4.510;2022-12-24T00:23:30;29.17;;;5.07;;
15526;SDS011;7865;50.918;4.510;2022-12-24T00:28:32;34.37;;;5.93;;
15526;SDS011;7865;50.918;4.510;2022-12-24T00:33:34;21.67;;;4.40;;
15526;SDS011;7865;50.918;4.510;2022-12-24T00:38:36;24.63;;;5.20;;
15526;SDS011;7865;50.918;4.510;2022-12-24T00:43:39;34.50;;;5.37;;
15526;SDS011;7865;50.918;4.510;2022-12-24T00:48:41;22.93;;;4.30;;
15526;SDS011;7865;50.918;4.510;2022-12-24T00:53:43;17.40;;;3.67;;
15526;SDS011;7865;50.918;4.510;2022-12-24T00:58:45;22.97;;;4.00;;
15526;SDS011;7865;50.918;4.510;2022-12-24T01:03:47;19.87;;;3.97;;
15526;SDS011;7865;50.918;4.510;2022-12-24T01:08:49;28.80;;;4.33;;
15526;SDS011;7865;50.918;4.510;2022-12-24T01:13:52;16.37;;;4.00;;
15526;SDS011;7865;50.918;4.510;2022-12-24T01:18:53;23.33;;;4.23;;
15526;SDS011;7865;50.918;4.510;2022-12-24T01:23:55;20.63;;;4.07;;
15526;SDS011;7865;50.918;4.510;2022-12-24T01:28:58;17.67;;;4.17;;
15526;SDS011;7865;50.918;4.510;2022-12-24T01:34:00;16.77;;;3.77;;
15526;SDS011;7865;50.918;4.510;2022-12-24T01:39:02;16.93;;;3.37;;
15526;SDS011;7865;50.918;4.510;2022-12-24T01:44:24;15.90;;;3.53;;
15526;SDS011;7865;50.918;4.510;2022-12-24T01:49:37;16.40;;;2.97;;
15526;SDS011;7865;50.918;4.510;2022-12-24T01:54:49;14.23;;;2.43;;
15526;SDS011;7865;50.918;4.510;2022-12-24T01:59:56;15.13;;;3.03;;
15526;SDS011;7865;50.918;4.510;2022-12-24T02:05:02;21.17;;;3.10;;
15526;SDS011;7865;50.918;4.510;2022-12-24T02:10:09;12.03;;;2.73;;
15526;SDS011;7865;50.918;4.510;2022-12-24T02:15:13;19.10;;;3.50;;
15526;SDS011;7865;50.918;4.510;2022-12-24T02:41:01;18.77;;;4.13;;
15526;SDS011;7865;50.918;4.510;2022-12-24T02:46:10;26.57;;;4.47;;
15526;SDS011;7865;50.918;4.510;2022-12-24T02:51:15;22.00;;;4.50;;
15526;SDS011;7865;50.918;4.510;2022-12-24T02:56:35;26.43;;;5.20;;
15526;SDS011;7865;50.918;4.510;2022-12-24T03:02:02;16.60;;;3.80;;
15526;SDS011;7865;50.918;4.510;2022-12-24T03:07:16;16.80;;;4.20;;
15526;SDS011;7865;50.918;4.510;2022-12-24T03:12:25;14.83;;;4.37;;
15526;SDS011;7865;50.918;4.510;2022-12-24T03:17:33;19.50;;;4.20;;
15526;SDS011;7865;50.918;4.510;2022-12-24T03:22:38;20.73;;;4.30;;
15526;SDS011;7865;50.918;4.510;2022-12-24T03:27:40;22.30;;;5.10;;
15526;SDS011;7865;50.918;4.510;2022-12-24T03:32:43;14.50;;;4.00;;
15526;SDS011;7865;50.918;4.510;2022-12-24T03:37:45;15.70;;;3.83;;
15526;SDS011;7865;50.918;4.510;2022-12-24T03:42:47;18.77;;;5.17;;
15526;SDS011;7865;50.918;4.510;2022-12-24T03:47:49;23.47;;;4.90;;
15526;SDS011;7865;50.918;4.510;2022-12-24T03:52:51;20.17;;;5.03;;
15526;SDS011;7865;50.918;4.510;2022-12-24T03:57:53;18.57;;;4.73;;
15526;SDS011;7865;50.918;4.510;2022-12-24T04:02:54;17.60;;;4.17;;
15526;SDS011;7865;50.918;4.510;2022-12-24T04:07:56;17.50;;;4.47;;
15526;SDS011;7865;50.918;4.510;2022-12-24T04:12:58;19.83;;;4.83;;
15526;SDS011;7865;50.918;4.510;2022-12-24T04:18:00;16.33;;;3.97;;
15526;SDS011;7865;50.918;4.510;2022-12-24T04:23:02;16.27;;;4.47;;
15526;SDS011;7865;50.918;4.510;2022-12-24T04:28:04;19.80;;;4.47;;
15526;SDS011;7865;50.918;4.510;2022-12-24T04:33:06;22.50;;;4.10;;
15526;SDS011;7865;50.918;4.510;2022-12-24T04:38:09;26.53;;;4.47;;
15526;SDS011;7865;50.918;4.510;2022-12-24T04:43:10;28.30;;;4.40;;
15526;SDS011;7865;50.918;4.510;2022-12-24T04:48:12;23.27;;;4.90;;
15526;SDS011;7865;50.918;4.510;2022-12-24T04:53:14;21.53;;;4.43;;
15526;SDS011;7865;50.918;4.510;2022-12-24T04:58:16;17.87;;;4.67;;
15526;SDS011;7865;50.918;4.510;2022-12-24T05:03:18;27.93;;;4.23;;
15526;SDS011;7865;50.918;4.510;2022-12-24T05:08:20;29.40;;;4.37;;
15526;SDS011;7865;50.918;4.510;2022-12-24T05:13:22;16.60;;;3.73;;
15526;SDS011;7865;50.918;4.510;2022-12-24T05:18:32;21.80;;;4.67;;
15526;SDS011;7865;50.918;4.510;2022-12-24T05:23:34;22.00;;;4.17;;
15526;SDS011;7865;50.918;4.510;2022-12-24T05:28:56;23.50;;;3.90;;
15526;SDS011;7865;50.918;4.510;2022-12-24T05:34:00;21.93;;;4.77;;
15526;SDS011;7865;50.918;4.510;2022-12-24T05:39:04;20.13;;;4.13;;
15526;SDS011;7865;50.918;4.510;2022-12-24T05:44:14;27.57;;;5.40;;
15526;SDS011;7865;50.918;4.510;2022-12-24T05:49:17;20.80;;;3.53;;
15526;SDS011;7865;50.918;4.510;2022-12-24T05:54:18;22.30;;;4.63;;
15526;SDS011;7865;50.918;4.510;2022-12-24T05:59:20;20.93;;;4.60;;
15526;SDS011;7865;50.918;4.510;2022-12-24T06:04:22;21.40;;;4.73;;
15526;SDS011;7865;50.918;4.510;2022-12-24T06:09:29;17.00;;;3.47;;
15526;SDS011;7865;50.918;4.510;2022-12-24T06:14:31;21.60;;;4.77;;
15526;SDS011;7865;50.918;4.510;2022-12-24T06:19:33;26.50;;;4.63;;
15526;SDS011;7865;50.918;4.510;2022-12-24T06:24:35;28.23;;;5.00;;
15526;SDS011;7865;50.918;4.510;2022-12-24T06:29:37;25.30;;;5.30;;
15526;SDS011;7865;50.918;4.510;2022-12-24T06:34:39;22.83;;;4.90;;
15526;SDS011;7865;50.918;4.510;2022-12-24T06:39:41;23.60;;;4.40;;
15526;SDS011;7865;50.918;4.510;2022-12-24T06:44:43;20.43;;;4.83;;
15526;SDS011;7865;50.918;4.510;2022-12-24T06:49:45;22.37;;;4.50;;
15526;SDS011;7865;50.918;4.510;2022-12-24T06:54:47;24.77;;;4.47;;
15526;SDS011;7865;50.918;4.510;2022-12-24T06:59:49;24.57;;;3.87;;
15526;SDS011;7865;50.918;4.510;2022-12-24T07:04:51;26.83;;;5.50;;
15526;SDS011;7865;50.918;4.510;2022-12-24T07:09:53;26.97;;;4.83;;
15526;SDS011;7865;50.918;4.510;2022-12-24T07:14:56;32.53;;;5.20;;
15526;SDS011;7865;50.918;4.510;2022-12-24T07:19:59;22.07;;;4.37;;
15526;SDS011;7865;50.918;4.510;2022-12-24T07:25:01;27.27;;;4.73;;
15526;SDS011;7865;50.918;4.510;2022-12-24T07:30:03;17.70;;;4.30;;
15526;SDS011;7865;50.918;4.510;2022-12-24T07:35:05;24.57;;;5.77;;
15526;SDS011;7865;50.918;4.510;2022-12-24T07:40:08;15.97;;;3.73;;
15526;SDS011;7865;50.918;4.510;2022-12-24T07:45:10;23.30;;;4.57;;
15526;SDS011;7865;50.918;4.510;2022-12-24T07:50:12;26.80;;;5.23;;
15526;SDS011;7865;50.918;4.510;2022-12-24T07:55:14;26.97;;;5.30;;
15526;SDS011;7865;50.918;4.510;2022-12-24T08:00:16;30.23;;;5.80;;
15526;SDS011;7865;50.918;4.510;2022-12-24T08:05:18;30.20;;;5.77;;
15526;SDS011;7865;50.918;4.510;2022-12-24T08:10:20;28.40;;;5.50;;
15526;SDS011;7865;50.918;4.510;2022-12-24T08:15:22;28.63;;;5.03;;
15526;SDS011;7865;50.918;4.510;2022-12-24T08:20:23;24.50;;;5.87;;
15526;SDS011;7865;50.918;4.510;2022-12-24T08:25:25;35.43;;;5.13;;
15526;SDS011;7865;50.918;4.510;2022-12-24T08:30:27;30.87;;;5.53;;
15526;SDS011;7865;50.918;4.510;2022-12-24T08:35:29;25.17;;;5.33;;
15526;SDS011;7865;50.918;4.510;2022-12-24T08:40:31;27.63;;;5.27;;
15526;SDS011;7865;50.918;4.510;2022-12-24T08:45:33;21.30;;;5.50;;
15526;SDS011;7865;50.918;4.510;2022-12-24T08:50:41;26.97;;;5.37;;
15526;SDS011;7865;50.918;4.510;2022-12-24T08:55:43;25.37;;;5.13;;
15526;SDS011;7865;50.918;4.510;2022-12-24T09:00:49;31.90;;;6.53;;
15526;SDS011;7865;50.918;4.510;2022-12-24T09:05:51;34.03;;;6.70;;
15526;SDS011;7865;50.918;4.510;2022-12-24T09:11:16;33.57;;;6.53;;
15526;SDS011;7865;50.918;4.510;2022-12-24T09:16:19;22.07;;;5.10;;
15526;SDS011;7865;50.918;4.510;2022-12-24T09:21:21;23.83;;;7.00;;
15526;SDS011;7865;50.918;4.510;2022-12-24T09:26:24;26.33;;;5.97;;
15526;SDS011;7865;50.918;4.510;2022-12-24T09:31:27;26.20;;;5.73;;
15526;SDS011;7865;50.918;4.510;2022-12-24T09:36:29;28.47;;;7.60;;
15526;SDS011;7865;50.918;4.510;2022-12-24T09:41:38;34.37;;;5.73;;
15526;SDS011;7865;50.918;4.510;2022-12-24T09:46:47;28.83;;;6.03;;
15526;SDS011;7865;50.918;4.510;2022-12-24T09:51:56;26.67;;;6.20;;
15526;SDS011;7865;50.918;4.510;2022-12-24T09:57:14;32.67;;;6.93;;
15526;SDS011;7865;50.918;4.510;2022-12-24T10:02:29;25.10;;;5.63;;
15526;SDS011;7865;50.918;4.510;2022-12-24T10:12:56;22.63;;;5.70;;
15526;SDS011;7865;50.918;4.510;2022-12-24T10:18:28;25.23;;;5.97;;
15526;SDS011;7865;50.918;4.510;2022-12-24T10:23:52;30.63;;;5.77;;
15526;SDS011;7865;50.918;4.510;2022-12-24T10:29:35;16.87;;;5.27;;
15526;SDS011;7865;50.918;4.510;2022-12-24T10:34:42;26.87;;;5.13;;
15526;SDS011;7865;50.918;4.510;2022-12-24T10:39:52;26.30;;;5.30;;
15526;SDS011;7865;50.918;4.510;2022-12-24T10:44:54;28.03;;;4.87;;
15526;SDS011;7865;50.918;4.510;2022-12-24T10:50:09;17.63;;;4.47;;
15526;SDS011;7865;50.918;4.510;2022-12-24T11:00:20;19.70;;;4.20;;
15526;SDS011;7865;50.918;4.510;2022-12-24T11:05:31;28.07;;;4.90;;
15526;SDS011;7865;50.918;4.510;2022-12-24T11:10:35;28.73;;;5.93;;
15526;SDS011;7865;50.918;4.510;2022-12-24T11:15:41;23.67;;;4.87;;
15526;SDS011;7865;50.918;4.510;2022-12-24T11:20:47;24.50;;;4.53;;
15526;SDS011;7865;50.918;4.510;2022-12-24T11:25:53;20.43;;;5.67;;
15526;SDS011;7865;50.918;4.510;2022-12-24T11:36:02;20.13;;;5.07;;
15526;SDS011;7865;50.918;4.510;2022-12-24T11:41:10;29.03;;;5.83;;
15526;SDS011;7865;50.918;4.510;2022-12-24T11:51:27;21.37;;;5.10;;
15526;SDS011;7865;50.918;4.510;2022-12-24T12:01:35;27.53;;;5.33;;
15526;SDS011;7865;50.918;4.510;2022-12-24T12:06:44;18.20;;;5.37;;
15526;SDS011;7865;50.918;4.510;2022-12-24T12:11:50;34.27;;;5.67;;
15526;SDS011;7865;50.918;4.510;2022-12-24T12:16:59;26.43;;;5.17;;
15526;SDS011;7865;50.918;4.510;2022-12-24T12:22:21;21.73;;;4.75;;
15526;SDS011;7865;50.918;4.510;2022-12-24T12:27:33;23.10;;;5.75;;
15526;SDS011;7865;50.918;4.510;2022-12-24T12:32:56;25.90;;;6.00;;
15526;SDS011;7865;50.918;4.510;2022-12-24T12:38:12;26.53;;;4.77;;
15526;SDS011;7865;50.918;4.510;2022-12-24T12:43:34;28.42;;;5.03;;
15526;SDS011;7865;50.918;4.510;2022-12-24T12:49:01;15.18;;;4.63;;
15526;SDS011;7865;50.918;4.510;2022-12-24T12:59:39;19.63;;;5.27;;
15526;SDS011;7865;50.918;4.510;2022-12-24T13:04:53;21.42;;;4.88;;
15526;SDS011;7865;50.918;4.510;2022-12-24T13:20:55;28.48;;;4.97;;
15526;SDS011;7865;50.918;4.510;2022-12-24T13:25:57;24.07;;;5.53;;
15526;SDS011;7865;50.918;4.510;2022-12-24T14:02:38;21.43;;;6.47;;
15526;SDS011;7865;50.918;4.510;2022-12-24T14:07:48;20.33;;;7.07;;
15526;SDS011;7865;50.918;4.510;2022-12-24T14:12:51;22.23;;;7.13;;
15526;SDS011;7865;50.918;4.510;2022-12-24T14:17:53;22.30;;;5.73;;
15526;SDS011;7865;50.918;4.510;2022-12-24T14:22:56;25.13;;;6.57;;
15526;SDS011;7865;50.918;4.510;2022-12-24T14:28:05;27.23;;;6.37;;
15526;SDS011;7865;50.918;4.510;2022-12-24T14:33:27;22.20;;;4.97;;
15526;SDS011;7865;50.918;4.510;2022-12-24T14:38:33;24.37;;;5.87;;
15526;SDS011;7865;50.918;4.510;2022-12-24T14:59:38;19.67;;;4.50;;
15526;SDS011;7865;50.918;4.510;2022-12-24T15:04:43;18.17;;;5.17;;
15526;SDS011;7865;50.918;4.510;2022-12-24T15:09:45;22.13;;;8.60;;
15526;SDS011;7865;50.918;4.510;2022-12-24T15:14:47;22.87;;;7.53;;
15526;SDS011;7865;50.918;4.510;2022-12-24T15:19:49;22.77;;;7.10;;
15526;SDS011;7865;50.918;4.510;2022-12-24T15:24:53;23.40;;;7.67;;
15526;SDS011;7865;50.918;4.510;2022-12-24T15:29:55;31.33;;;8.37;;
15526;SDS011;7865;50.918;4.510;2022-12-24T15:34:58;22.53;;;5.43;;
15526;SDS011;7865;50.918;4.510;2022-12-24T15:40:04;19.67;;;5.97;;
15526;SDS011;7865;50.918;4.510;2022-12-24T15:45:20;24.73;;;5.33;;
15526;SDS011;7865;50.918;4.510;2022-12-24T15:50:50;22.43;;;6.13;;
15526;SDS011;7865;50.918;4.510;2022-12-24T15:56:12;26.40;;;7.53;;
15526;SDS011;7865;50.918;4.510;2022-12-24T16:01:28;25.23;;;5.37;;
15526;SDS011;7865;50.918;4.510;2022-12-24T16:06:49;21.23;;;5.43;;
15526;SDS011;7865;50.918;4.510;2022-12-24T16:11:56;33.40;;;6.43;;
15526;SDS011;7865;50.918;4.510;2022-12-24T16:17:09;31.17;;;6.23;;
15526;SDS011;7865;50.918;4.510;2022-12-24T16:22:19;31.60;;;6.00;;
15526;SDS011;7865;50.918;4.510;2022-12-24T16:27:32;29.27;;;6.20;;
15526;SDS011;7865;50.918;4.510;2022-12-24T16:32:34;29.23;;;6.97;;
15526;SDS011;7865;50.918;4.510;2022-12-24T16:37:39;23.37;;;6.60;;
15526;SDS011;7865;50.918;4.510;2022-12-24T16:42:40;28.27;;;6.83;;
15526;SDS011;7865;50.918;4.510;2022-12-24T16:48:01;23.60;;;5.93;;
15526;SDS011;7865;50.918;4.510;2022-12-24T16:53:03;21.13;;;5.60;;
15526;SDS011;7865;50.918;4.510;2022-12-24T16:58:05;18.27;;;5.37;;
15526;SDS011;7865;50.918;4.510;2022-12-24T17:03:07;21.37;;;5.93;;
15526;SDS011;7865;50.918;4.510;2022-12-24T17:08:09;24.40;;;6.27;;
15526;SDS011;7865;50.918;4.510;2022-12-24T17:13:12;21.43;;;5.90;;
15526;SDS011;7865;50.918;4.510;2022-12-24T17:18:14;29.80;;;8.53;;
15526;SDS011;7865;50.918;4.510;2022-12-24T17:23:15;26.43;;;7.17;;
15526;SDS011;7865;50.918;4.510;2022-12-24T17:28:17;25.13;;;7.63;;
15526;SDS011;7865;50.918;4.510;2022-12-24T17:33:19;29.63;;;7.50;;
15526;SDS011;7865;50.918;4.510;2022-12-24T17:38:21;21.43;;;6.57;;
15526;SDS011;7865;50.918;4.510;2022-12-24T17:43:23;16.07;;;6.33;;
15526;SDS011;7865;50.918;4.510;2022-12-24T17:48:24;26.40;;;8.57;;
15526;SDS011;7865;50.918;4.510;2022-12-24T17:53:26;29.27;;;9.37;;
15526;SDS011;7865;50.918;4.510;2022-12-24T17:58:29;27.83;;;9.27;;
15526;SDS011;7865;50.918;4.510;2022-12-24T18:03:31;27.80;;;7.57;;
15526;SDS011;7865;50.918;4.510;2022-12-24T18:08:34;27.70;;;8.33;;
15526;SDS011;7865;50.918;4.510;2022-12-24T18:13:37;30.17;;;7.73;;
15526;SDS011;7865;50.918;4.510;2022-12-24T18:18:39;26.00;;;8.50;;
15526;SDS011;7865;50.918;4.510;2022-12-24T18:23:42;25.53;;;8.20;;
15526;SDS011;7865;50.918;4.510;2022-12-24T18:28:45;27.73;;;8.40;;
15526;SDS011;7865;50.918;4.510;2022-12-24T18:33:48;24.77;;;7.73;;
15526;SDS011;7865;50.918;4.510;2022-12-24T18:38:51;21.27;;;7.93;;
15526;SDS011;7865;50.918;4.510;2022-12-24T18:43:53;21.17;;;7.53;;
15526;SDS011;7865;50.918;4.510;2022-12-24T18:48:56;18.63;;;6.83;;
15526;SDS011;7865;50.918;4.510;2022-12-24T18:54:00;22.20;;;7.57;;
15526;SDS011;7865;50.918;4.510;2022-12-24T18:59:03;20.50;;;6.67;;
15526;SDS011;7865;50.918;4.510;2022-12-24T19:04:05;19.73;;;6.33;;
15526;SDS011;7865;50.918;4.510;2022-12-24T19:09:07;23.87;;;7.70;;
15526;SDS011;7865;50.918;4.510;2022-12-24T19:14:10;18.50;;;6.90;;
15526;SDS011;7865;50.918;4.510;2022-12-24T19:19:13;23.43;;;7.57;;
15526;SDS011;7865;50.918;4.510;2022-12-24T19:24:15;26.27;;;7.40;;
15526;SDS011;7865;50.918;4.510;2022-12-24T19:29:17;17.57;;;6.50;;
15526;SDS011;7865;50.918;4.510;2022-12-24T19:34:19;23.17;;;6.53;;
15526;SDS011;7865;50.918;4.510;2022-12-24T19:39:21;20.57;;;5.93;;
15526;SDS011;7865;50.918;4.510;2022-12-24T19:44:32;17.73;;;6.37;;
15526;SDS011;7865;50.918;4.510;2022-12-24T19:49:33;19.00;;;6.40;;
15526;SDS011;7865;50.918;4.510;2022-12-24T19:54:35;19.83;;;6.73;;
15526;SDS011;7865;50.918;4.510;2022-12-24T19:59:37;25.57;;;6.20;;
15526;SDS011;7865;50.918;4.510;2022-12-24T20:04:39;18.13;;;6.87;;
15526;SDS011;7865;50.918;4.510;2022-12-24T20:09:41;17.20;;;5.67;;
15526;SDS011;7865;50.918;4.510;2022-12-24T20:14:43;18.33;;;6.03;;
15526;SDS011;7865;50.918;4.510;2022-12-24T20:19:45;20.90;;;6.07;;
15526;SDS011;7865;50.918;4.510;2022-12-24T20:24:46;19.70;;;6.87;;
15526;SDS011;7865;50.918;4.510;2022-12-24T20:29:48;18.47;;;6.17;;
15526;SDS011;7865;50.918;4.510;2022-12-24T20:34:50;17.43;;;5.80;;
15526;SDS011;7865;50.918;4.510;2022-12-24T20:39:52;18.40;;;7.07;;
15526;SDS011;7865;50.918;4.510;2022-12-24T20:44:55;15.73;;;5.87;;
15526;SDS011;7865;50.918;4.510;2022-12-24T20:49:58;20.30;;;6.57;;
15526;SDS011;7865;50.918;4.510;2022-12-24T20:55:00;22.47;;;7.20;;
15526;SDS011;7865;50.918;4.510;2022-12-24T21:00:02;15.77;;;5.90;;
15526;SDS011;7865;50.918;4.510;2022-12-24T21:05:05;16.17;;;5.93;;
15526;SDS011;7865;50.918;4.510;2022-12-24T21:10:09;18.17;;;5.77;;
15526;SDS011;7865;50.918;4.510;2022-12-24T21:15:13;19.30;;;5.77;;
15526;SDS011;7865;50.918;4.510;2022-12-24T21:20:19;21.90;;;6.23;;
15526;SDS011;7865;50.918;4.510;2022-12-24T21:25:24;16.90;;;6.23;;
15526;SDS011;7865;50.918;4.510;2022-12-24T21:30:27;19.03;;;5.87;;
15526;SDS011;7865;50.918;4.510;2022-12-24T21:35:29;16.30;;;6.83;;
15526;SDS011;7865;50.918;4.510;2022-12-24T21:40:31;13.13;;;6.20;;
15526;SDS011;7865;50.918;4.510;2022-12-24T21:45:33;14.73;;;6.27;;
15526;SDS011;7865;50.918;4.510;2022-12-24T21:50:34;16.37;;;6.10;;
15526;SDS011;7865;50.918;4.510;2022-12-24T21:55:55;13.50;;;5.73;;
15526;SDS011;7865;50.918;4.510;2022-12-24T22:00:57;17.40;;;6.17;;
15526;SDS011;7865;50.918;4.510;2022-12-24T22:06:06;17.00;;;6.37;;
15526;SDS011;7865;50.918;4.510;2022-12-24T22:11:12;17.60;;;6.77;;
15526;SDS011;7865;50.918;4.510;2022-12-24T22:16:33;17.73;;;6.23;;
15526;SDS011;7865;50.918;4.510;2022-12-24T22:21:35;16.30;;;5.83;;
15526;SDS011;7865;50.918;4.510;2022-12-24T22:26:37;14.87;;;5.87;;
15526;SDS011;7865;50.918;4.510;2022-12-24T22:31:39;12.07;;;6.43;;
15526;SDS011;7865;50.918;4.510;2022-12-24T22:36:41;9.60;;;5.13;;
15526;SDS011;7865;50.918;4.510;2022-12-24T22:41:43;11.43;;;5.07;;
15526;SDS011;7865;50.918;4.510;2022-12-24T22:46:45;16.00;;;6.27;;
15526;SDS011;7865;50.918;4.510;2022-12-24T22:51:47;18.33;;;6.20;;
15526;SDS011;7865;50.918;4.510;2022-12-24T22:56:49;11.30;;;5.43;;
15526;SDS011;7865;50.918;4.510;2022-12-24T23:01:51;18.07;;;5.87;;
15526;SDS011;7865;50.918;4.510;2022-12-24T23:06:54;12.73;;;5.40;;
15526;SDS011;7865;50.918;4.510;2022-12-24T23:11:56;13.00;;;6.10;;
15526;SDS011;7865;50.918;4.510;2022-12-24T23:16:58;11.37;;;6.60;;
15526;SDS011;7865;50.918;4.510;2022-12-24T23:22:00;20.23;;;6.77;;
15526;SDS011;7865;50.918;4.510;2022-12-24T23:27:03;9.20;;;5.23;;
15526;SDS011;7865;50.918;4.510;2022-12-24T23:32:05;17.30;;;6.00;;
15526;SDS011;7865;50.918;4.510;2022-12-24T23:37:07;14.37;;;5.60;;
15526;SDS011;7865;50.918;4.510;2022-12-24T23:42:08;9.43;;;4.90;;
15526;SDS011;7865;50.918;4.510;2022-12-24T23:47:10;7.80;;;5.07;;
15526;SDS011;7865;50.918;4.510;2022-12-24T23:52:12;10.70;;;4.70;;
15526;SDS011;7865;50.918;4.510;2022-12-24T23:57:14;7.40;;;4.00;;
